Search for airport 
image banner adimage banner adimage banner ad
image banner ad

5CL9 - Table Mountain Field

Located in Auberry, United States

ICAO - 5CL9, IATA -

Data provided by Airmate  

General information

Coordinates: N37°8'29" W119°30'29"
Elevation is 1280 feet MSL.
Magnetic variation is 15° East
View others Airports in California

Operational data

Special qualification required
Current time UTC:
Current local time:
Weather at : KFAT - Fresno Yosemite Intl ( 45 km )
METAR: KFAT 211253Z 28005KT 10SM CLR 22/11 A2984 RMK AO2 SLP098 T02220111 $
TAF: KFAT 211120Z 2112/2212 31008KT P6SM SKC
View NOTAMs / SUP AIP / TFR affecting this airport [VIEW]
Communications frequencies: [VIEW]

Runways:

RWY identifierQFULength (ft)Width (ft)SurfaceLDA (ft)
15200050EARTH
33200050EARTH

Airport contact information

Address: Auberry United States

Satellite view of 5CL9